sensor_id;sensor_type;location;lat;lon;timestamp;P1;durP1;ratioP1;P2;durP2;ratioP2
5117;SDS011;2578;51.622;7.046;2023-12-20T00:00:58;52.30;;;17.70;;
5117;SDS011;2578;51.622;7.046;2023-12-20T00:03:24;58.13;;;20.30;;
5117;SDS011;2578;51.622;7.046;2023-12-20T00:05:50;51.33;;;17.37;;
5117;SDS011;2578;51.622;7.046;2023-12-20T00:08:16;54.77;;;21.47;;
5117;SDS011;2578;51.622;7.046;2023-12-20T00:10:43;54.47;;;17.53;;
5117;SDS011;2578;51.622;7.046;2023-12-20T00:13:09;55.80;;;19.93;;
5117;SDS011;2578;51.622;7.046;2023-12-20T00:15:35;66.80;;;21.67;;
5117;SDS011;2578;51.622;7.046;2023-12-20T00:18:00;47.17;;;16.27;;
5117;SDS011;2578;51.622;7.046;2023-12-20T00:20:27;64.83;;;19.47;;
5117;SDS011;2578;51.622;7.046;2023-12-20T00:22:56;53.13;;;19.20;;
5117;SDS011;2578;51.622;7.046;2023-12-20T00:25:23;54.00;;;18.80;;
5117;SDS011;2578;51.622;7.046;2023-12-20T00:27:49;48.70;;;16.73;;
5117;SDS011;2578;51.622;7.046;2023-12-20T00:30:15;48.77;;;18.43;;
5117;SDS011;2578;51.622;7.046;2023-12-20T00:32:41;50.17;;;18.60;;
5117;SDS011;2578;51.622;7.046;2023-12-20T00:35:15;59.23;;;18.93;;
5117;SDS011;2578;51.622;7.046;2023-12-20T00:37:42;47.53;;;17.03;;
5117;SDS011;2578;51.622;7.046;2023-12-20T00:40:08;49.33;;;19.00;;
5117;SDS011;2578;51.622;7.046;2023-12-20T00:42:34;46.33;;;16.33;;
5117;SDS011;2578;51.622;7.046;2023-12-20T00:45:03;53.63;;;19.17;;
5117;SDS011;2578;51.622;7.046;2023-12-20T00:47:30;45.00;;;15.63;;
5117;SDS011;2578;51.622;7.046;2023-12-20T00:49:56;51.43;;;17.00;;
5117;SDS011;2578;51.622;7.046;2023-12-20T00:52:22;58.90;;;19.57;;
5117;SDS011;2578;51.622;7.046;2023-12-20T00:54:48;46.40;;;16.67;;
5117;SDS011;2578;51.622;7.046;2023-12-20T00:57:15;57.27;;;21.40;;
5117;SDS011;2578;51.622;7.046;2023-12-20T00:59:41;47.17;;;17.03;;
5117;SDS011;2578;51.622;7.046;2023-12-20T01:02:07;49.40;;;18.63;;
5117;SDS011;2578;51.622;7.046;2023-12-20T01:04:34;47.13;;;17.27;;
5117;SDS011;2578;51.622;7.046;2023-12-20T01:07:00;45.77;;;16.73;;
5117;SDS011;2578;51.622;7.046;2023-12-20T01:09:26;49.43;;;17.80;;
5117;SDS011;2578;51.622;7.046;2023-12-20T01:11:52;56.43;;;23.17;;
5117;SDS011;2578;51.622;7.046;2023-12-20T01:14:18;48.70;;;18.17;;
5117;SDS011;2578;51.622;7.046;2023-12-20T01:16:44;47.60;;;19.27;;
5117;SDS011;2578;51.622;7.046;2023-12-20T01:19:10;54.53;;;21.10;;
5117;SDS011;2578;51.622;7.046;2023-12-20T01:21:36;46.90;;;16.50;;
5117;SDS011;2578;51.622;7.046;2023-12-20T01:24:02;50.03;;;19.37;;
5117;SDS011;2578;51.622;7.046;2023-12-20T01:26:28;50.90;;;19.73;;
5117;SDS011;2578;51.622;7.046;2023-12-20T01:28:54;47.90;;;17.27;;
5117;SDS011;2578;51.622;7.046;2023-12-20T01:31:20;49.10;;;17.63;;
5117;SDS011;2578;51.622;7.046;2023-12-20T01:33:46;50.67;;;17.27;;
5117;SDS011;2578;51.622;7.046;2023-12-20T01:36:12;48.93;;;18.67;;
5117;SDS011;2578;51.622;7.046;2023-12-20T01:38:38;53.67;;;17.63;;
5117;SDS011;2578;51.622;7.046;2023-12-20T01:41:04;46.83;;;17.53;;
5117;SDS011;2578;51.622;7.046;2023-12-20T01:43:30;49.10;;;17.73;;
5117;SDS011;2578;51.622;7.046;2023-12-20T01:45:57;49.20;;;18.97;;
5117;SDS011;2578;51.622;7.046;2023-12-20T01:48:23;48.77;;;18.10;;
5117;SDS011;2578;51.622;7.046;2023-12-20T01:50:51;65.93;;;19.87;;
5117;SDS011;2578;51.622;7.046;2023-12-20T01:53:17;74.17;;;19.43;;
5117;SDS011;2578;51.622;7.046;2023-12-20T01:55:45;49.27;;;18.90;;
5117;SDS011;2578;51.622;7.046;2023-12-20T01:58:11;49.37;;;17.87;;
5117;SDS011;2578;51.622;7.046;2023-12-20T02:00:38;50.40;;;18.30;;
5117;SDS011;2578;51.622;7.046;2023-12-20T02:03:04;51.47;;;19.30;;
5117;SDS011;2578;51.622;7.046;2023-12-20T02:05:30;56.40;;;19.37;;
5117;SDS011;2578;51.622;7.046;2023-12-20T02:07:57;49.80;;;19.80;;
5117;SDS011;2578;51.622;7.046;2023-12-20T02:10:23;47.70;;;17.40;;
5117;SDS011;2578;51.622;7.046;2023-12-20T02:12:49;50.80;;;18.30;;
5117;SDS011;2578;51.622;7.046;2023-12-20T02:15:15;51.23;;;18.20;;
5117;SDS011;2578;51.622;7.046;2023-12-20T02:17:41;49.00;;;19.90;;
5117;SDS011;2578;51.622;7.046;2023-12-20T02:20:08;48.23;;;17.87;;
5117;SDS011;2578;51.622;7.046;2023-12-20T02:22:33;49.40;;;17.93;;
5117;SDS011;2578;51.622;7.046;2023-12-20T02:24:59;58.57;;;19.27;;
5117;SDS011;2578;51.622;7.046;2023-12-20T02:27:25;50.20;;;19.87;;
5117;SDS011;2578;51.622;7.046;2023-12-20T02:29:51;50.33;;;18.67;;
5117;SDS011;2578;51.622;7.046;2023-12-20T02:32:17;48.60;;;17.43;;
5117;SDS011;2578;51.622;7.046;2023-12-20T02:34:43;57.30;;;18.60;;
5117;SDS011;2578;51.622;7.046;2023-12-20T02:37:09;49.00;;;18.50;;
5117;SDS011;2578;51.622;7.046;2023-12-20T02:39:35;69.57;;;18.50;;
5117;SDS011;2578;51.622;7.046;2023-12-20T02:42:01;47.83;;;18.00;;
5117;SDS011;2578;51.622;7.046;2023-12-20T02:44:27;49.37;;;18.30;;
5117;SDS011;2578;51.622;7.046;2023-12-20T02:46:53;55.33;;;18.23;;
5117;SDS011;2578;51.622;7.046;2023-12-20T02:49:19;49.90;;;19.50;;
5117;SDS011;2578;51.622;7.046;2023-12-20T02:51:45;61.93;;;19.97;;
5117;SDS011;2578;51.622;7.046;2023-12-20T02:54:11;47.07;;;16.93;;
5117;SDS011;2578;51.622;7.046;2023-12-20T02:56:38;50.50;;;18.90;;
5117;SDS011;2578;51.622;7.046;2023-12-20T02:59:04;51.27;;;18.70;;
5117;SDS011;2578;51.622;7.046;2023-12-20T03:01:34;50.10;;;18.00;;
5117;SDS011;2578;51.622;7.046;2023-12-20T03:04:00;48.80;;;16.83;;
5117;SDS011;2578;51.622;7.046;2023-12-20T03:06:26;48.80;;;18.10;;
5117;SDS011;2578;51.622;7.046;2023-12-20T03:08:52;49.13;;;16.60;;
5117;SDS011;2578;51.622;7.046;2023-12-20T03:11:18;57.60;;;20.13;;
5117;SDS011;2578;51.622;7.046;2023-12-20T03:13:44;50.17;;;18.60;;
5117;SDS011;2578;51.622;7.046;2023-12-20T03:16:10;47.10;;;16.80;;
5117;SDS011;2578;51.622;7.046;2023-12-20T03:18:36;47.30;;;17.93;;
5117;SDS011;2578;51.622;7.046;2023-12-20T03:21:03;46.70;;;16.30;;
5117;SDS011;2578;51.622;7.046;2023-12-20T03:23:29;46.67;;;16.53;;
5117;SDS011;2578;51.622;7.046;2023-12-20T03:25:57;48.30;;;17.77;;
5117;SDS011;2578;51.622;7.046;2023-12-20T03:28:23;51.67;;;17.73;;
5117;SDS011;2578;51.622;7.046;2023-12-20T03:30:49;48.37;;;17.37;;
5117;SDS011;2578;51.622;7.046;2023-12-20T03:33:15;51.37;;;17.60;;
5117;SDS011;2578;51.622;7.046;2023-12-20T03:35:41;47.00;;;16.73;;
5117;SDS011;2578;51.622;7.046;2023-12-20T03:38:07;52.33;;;18.63;;
5117;SDS011;2578;51.622;7.046;2023-12-20T03:40:33;64.13;;;18.37;;
5117;SDS011;2578;51.622;7.046;2023-12-20T03:42:59;53.77;;;17.97;;
5117;SDS011;2578;51.622;7.046;2023-12-20T03:45:25;50.00;;;16.80;;
5117;SDS011;2578;51.622;7.046;2023-12-20T03:47:51;53.57;;;19.13;;
5117;SDS011;2578;51.622;7.046;2023-12-20T03:50:24;46.13;;;15.73;;
5117;SDS011;2578;51.622;7.046;2023-12-20T03:52:52;52.20;;;17.90;;
5117;SDS011;2578;51.622;7.046;2023-12-20T03:55:18;46.80;;;16.67;;
5117;SDS011;2578;51.622;7.046;2023-12-20T03:57:44;49.90;;;17.63;;
5117;SDS011;2578;51.622;7.046;2023-12-20T04:00:10;46.13;;;16.57;;
5117;SDS011;2578;51.622;7.046;2023-12-20T04:02:37;46.90;;;16.87;;
5117;SDS011;2578;51.622;7.046;2023-12-20T04:05:03;48.93;;;17.70;;
5117;SDS011;2578;51.622;7.046;2023-12-20T04:07:30;51.53;;;20.70;;
5117;SDS011;2578;51.622;7.046;2023-12-20T04:09:55;47.70;;;16.50;;
5117;SDS011;2578;51.622;7.046;2023-12-20T04:12:21;47.57;;;17.03;;
5117;SDS011;2578;51.622;7.046;2023-12-20T04:14:47;51.30;;;16.60;;
5117;SDS011;2578;51.622;7.046;2023-12-20T04:17:14;50.03;;;18.47;;
5117;SDS011;2578;51.622;7.046;2023-12-20T04:19:44;50.20;;;18.20;;
5117;SDS011;2578;51.622;7.046;2023-12-20T04:22:09;50.17;;;17.87;;
5117;SDS011;2578;51.622;7.046;2023-12-20T04:24:35;47.20;;;17.10;;
5117;SDS011;2578;51.622;7.046;2023-12-20T04:27:01;49.37;;;18.30;;
5117;SDS011;2578;51.622;7.046;2023-12-20T04:29:27;48.33;;;17.80;;
5117;SDS011;2578;51.622;7.046;2023-12-20T04:31:53;46.20;;;16.20;;
5117;SDS011;2578;51.622;7.046;2023-12-20T04:34:20;62.13;;;19.57;;
5117;SDS011;2578;51.622;7.046;2023-12-20T04:36:47;81.07;;;20.10;;
5117;SDS011;2578;51.622;7.046;2023-12-20T04:39:13;46.83;;;16.67;;
5117;SDS011;2578;51.622;7.046;2023-12-20T04:41:40;48.37;;;17.47;;
5117;SDS011;2578;51.622;7.046;2023-12-20T04:44:06;47.23;;;16.90;;
5117;SDS011;2578;51.622;7.046;2023-12-20T04:46:32;46.67;;;16.30;;
5117;SDS011;2578;51.622;7.046;2023-12-20T04:48:58;48.23;;;16.97;;
5117;SDS011;2578;51.622;7.046;2023-12-20T04:51:24;50.00;;;16.80;;
5117;SDS011;2578;51.622;7.046;2023-12-20T04:53:50;50.77;;;17.53;;
5117;SDS011;2578;51.622;7.046;2023-12-20T04:56:16;56.23;;;19.10;;
5117;SDS011;2578;51.622;7.046;2023-12-20T04:58:42;53.67;;;17.90;;
5117;SDS011;2578;51.622;7.046;2023-12-20T05:01:08;49.53;;;18.13;;
5117;SDS011;2578;51.622;7.046;2023-12-20T05:03:34;47.03;;;16.33;;
5117;SDS011;2578;51.622;7.046;2023-12-20T05:06:00;48.10;;;16.13;;
5117;SDS011;2578;51.622;7.046;2023-12-20T05:08:26;45.50;;;15.77;;
5117;SDS011;2578;51.622;7.046;2023-12-20T05:10:56;66.77;;;19.60;;
5117;SDS011;2578;51.622;7.046;2023-12-20T05:13:21;47.50;;;16.70;;
5117;SDS011;2578;51.622;7.046;2023-12-20T05:15:47;47.00;;;16.77;;
5117;SDS011;2578;51.622;7.046;2023-12-20T05:18:13;46.50;;;16.13;;
5117;SDS011;2578;51.622;7.046;2023-12-20T05:20:40;52.40;;;19.33;;
5117;SDS011;2578;51.622;7.046;2023-12-20T05:23:05;46.70;;;17.53;;
5117;SDS011;2578;51.622;7.046;2023-12-20T05:25:31;44.83;;;16.30;;
5117;SDS011;2578;51.622;7.046;2023-12-20T05:27:57;51.83;;;16.43;;
5117;SDS011;2578;51.622;7.046;2023-12-20T05:30:23;49.40;;;17.30;;
5117;SDS011;2578;51.622;7.046;2023-12-20T05:32:49;47.30;;;16.60;;
5117;SDS011;2578;51.622;7.046;2023-12-20T05:35:16;46.33;;;16.83;;
5117;SDS011;2578;51.622;7.046;2023-12-20T05:37:42;44.67;;;16.10;;
5117;SDS011;2578;51.622;7.046;2023-12-20T05:40:08;46.10;;;17.60;;
5117;SDS011;2578;51.622;7.046;2023-12-20T05:42:35;47.17;;;17.43;;
5117;SDS011;2578;51.622;7.046;2023-12-20T05:45:02;46.77;;;18.80;;
5117;SDS011;2578;51.622;7.046;2023-12-20T05:47:28;45.83;;;17.10;;
5117;SDS011;2578;51.622;7.046;2023-12-20T05:49:54;47.80;;;18.10;;
5117;SDS011;2578;51.622;7.046;2023-12-20T05:52:20;48.20;;;17.97;;
5117;SDS011;2578;51.622;7.046;2023-12-20T05:54:46;59.53;;;17.83;;
5117;SDS011;2578;51.622;7.046;2023-12-20T05:57:12;47.83;;;18.70;;
5117;SDS011;2578;51.622;7.046;2023-12-20T05:59:38;51.10;;;19.30;;
5117;SDS011;2578;51.622;7.046;2023-12-20T06:02:04;52.30;;;18.77;;
5117;SDS011;2578;51.622;7.046;2023-12-20T06:04:30;45.17;;;17.57;;
5117;SDS011;2578;51.622;7.046;2023-12-20T06:06:56;47.93;;;18.53;;
5117;SDS011;2578;51.622;7.046;2023-12-20T06:09:22;48.13;;;19.67;;
5117;SDS011;2578;51.622;7.046;2023-12-20T06:11:49;44.67;;;17.73;;
5117;SDS011;2578;51.622;7.046;2023-12-20T06:14:15;63.17;;;24.07;;
5117;SDS011;2578;51.622;7.046;2023-12-20T06:16:41;47.30;;;19.73;;
5117;SDS011;2578;51.622;7.046;2023-12-20T06:19:07;96.40;;;21.90;;
5117;SDS011;2578;51.622;7.046;2023-12-20T06:21:33;50.50;;;20.10;;
5117;SDS011;2578;51.622;7.046;2023-12-20T06:23:59;65.63;;;19.83;;
5117;SDS011;2578;51.622;7.046;2023-12-20T06:26:25;50.20;;;20.80;;
5117;SDS011;2578;51.622;7.046;2023-12-20T06:28:51;58.43;;;22.53;;
5117;SDS011;2578;51.622;7.046;2023-12-20T06:31:17;49.07;;;19.60;;
5117;SDS011;2578;51.622;7.046;2023-12-20T06:33:43;45.60;;;18.37;;
5117;SDS011;2578;51.622;7.046;2023-12-20T06:36:13;46.83;;;19.10;;
5117;SDS011;2578;51.622;7.046;2023-12-20T06:38:39;46.47;;;19.77;;
5117;SDS011;2578;51.622;7.046;2023-12-20T06:41:07;47.20;;;20.60;;
5117;SDS011;2578;51.622;7.046;2023-12-20T06:43:33;46.67;;;19.83;;
5117;SDS011;2578;51.622;7.046;2023-12-20T06:46:00;46.53;;;19.97;;
5117;SDS011;2578;51.622;7.046;2023-12-20T06:48:26;50.00;;;19.70;;
5117;SDS011;2578;51.622;7.046;2023-12-20T06:50:52;54.13;;;21.50;;
5117;SDS011;2578;51.622;7.046;2023-12-20T06:53:18;48.13;;;19.70;;
5117;SDS011;2578;51.622;7.046;2023-12-20T06:55:44;46.37;;;19.60;;
5117;SDS011;2578;51.622;7.046;2023-12-20T06:58:10;47.40;;;19.50;;
5117;SDS011;2578;51.622;7.046;2023-12-20T07:00:36;49.67;;;21.10;;
5117;SDS011;2578;51.622;7.046;2023-12-20T07:03:02;49.63;;;20.73;;
5117;SDS011;2578;51.622;7.046;2023-12-20T07:05:28;49.60;;;20.20;;
5117;SDS011;2578;51.622;7.046;2023-12-20T07:07:54;49.50;;;21.10;;
5117;SDS011;2578;51.622;7.046;2023-12-20T07:10:20;47.70;;;20.83;;
5117;SDS011;2578;51.622;7.046;2023-12-20T07:12:46;58.67;;;23.13;;
5117;SDS011;2578;51.622;7.046;2023-12-20T07:15:13;62.83;;;21.17;;
5117;SDS011;2578;51.622;7.046;2023-12-20T07:17:39;46.77;;;18.10;;
5117;SDS011;2578;51.622;7.046;2023-12-20T07:20:06;49.03;;;18.60;;
5117;SDS011;2578;51.622;7.046;2023-12-20T07:22:34;47.87;;;19.47;;
5117;SDS011;2578;51.622;7.046;2023-12-20T07:25:01;51.73;;;19.80;;
5117;SDS011;2578;51.622;7.046;2023-12-20T07:27:27;49.90;;;22.77;;
5117;SDS011;2578;51.622;7.046;2023-12-20T07:29:53;47.27;;;18.90;;
5117;SDS011;2578;51.622;7.046;2023-12-20T07:32:19;54.87;;;21.00;;
5117;SDS011;2578;51.622;7.046;2023-12-20T07:34:45;51.33;;;22.17;;
5117;SDS011;2578;51.622;7.046;2023-12-20T07:37:11;50.53;;;20.60;;
5117;SDS011;2578;51.622;7.046;2023-12-20T07:39:39;51.10;;;21.53;;
5117;SDS011;2578;51.622;7.046;2023-12-20T07:42:05;54.57;;;20.63;;
5117;SDS011;2578;51.622;7.046;2023-12-20T07:44:31;48.47;;;19.50;;
5117;SDS011;2578;51.622;7.046;2023-12-20T07:46:57;53.50;;;21.53;;
5117;SDS011;2578;51.622;7.046;2023-12-20T07:49:23;47.90;;;19.13;;
5117;SDS011;2578;51.622;7.046;2023-12-20T07:51:49;54.43;;;24.53;;
5117;SDS011;2578;51.622;7.046;2023-12-20T07:54:15;53.10;;;24.20;;
5117;SDS011;2578;51.622;7.046;2023-12-20T07:56:41;53.33;;;23.43;;
5117;SDS011;2578;51.622;7.046;2023-12-20T07:59:07;57.37;;;23.53;;
5117;SDS011;2578;51.622;7.046;2023-12-20T08:01:33;56.40;;;24.07;;
5117;SDS011;2578;51.622;7.046;2023-12-20T08:03:59;55.70;;;22.70;;
5117;SDS011;2578;51.622;7.046;2023-12-20T08:06:25;51.80;;;22.93;;
5117;SDS011;2578;51.622;7.046;2023-12-20T08:08:51;54.30;;;23.27;;
5117;SDS011;2578;51.622;7.046;2023-12-20T08:11:17;51.43;;;21.60;;
5117;SDS011;2578;51.622;7.046;2023-12-20T08:13:43;52.23;;;21.80;;
5117;SDS011;2578;51.622;7.046;2023-12-20T08:16:09;52.27;;;21.77;;
5117;SDS011;2578;51.622;7.046;2023-12-20T08:18:36;62.00;;;25.47;;
5117;SDS011;2578;51.622;7.046;2023-12-20T08:21:02;49.63;;;20.50;;
5117;SDS011;2578;51.622;7.046;2023-12-20T08:23:28;75.83;;;23.87;;
5117;SDS011;2578;51.622;7.046;2023-12-20T08:25:54;54.43;;;21.50;;
5117;SDS011;2578;51.622;7.046;2023-12-20T08:28:20;53.70;;;21.67;;
5117;SDS011;2578;51.622;7.046;2023-12-20T08:30:46;55.90;;;22.50;;
5117;SDS011;2578;51.622;7.046;2023-12-20T08:33:12;47.83;;;19.10;;
5117;SDS011;2578;51.622;7.046;2023-12-20T08:35:38;51.50;;;22.20;;
5117;SDS011;2578;51.622;7.046;2023-12-20T08:38:05;47.80;;;19.80;;
5117;SDS011;2578;51.622;7.046;2023-12-20T08:40:31;47.93;;;19.50;;
5117;SDS011;2578;51.622;7.046;2023-12-20T08:42:57;53.67;;;22.17;;
5117;SDS011;2578;51.622;7.046;2023-12-20T08:45:23;52.43;;;22.17;;
5117;SDS011;2578;51.622;7.046;2023-12-20T08:47:49;48.70;;;20.33;;
5117;SDS011;2578;51.622;7.046;2023-12-20T08:50:15;47.10;;;19.70;;
5117;SDS011;2578;51.622;7.046;2023-12-20T08:52:41;57.87;;;25.03;;
5117;SDS011;2578;51.622;7.046;2023-12-20T08:55:07;64.17;;;21.30;;
5117;SDS011;2578;51.622;7.046;2023-12-20T08:57:34;48.80;;;20.77;;
5117;SDS011;2578;51.622;7.046;2023-12-20T09:00:00;48.27;;;20.40;;
5117;SDS011;2578;51.622;7.046;2023-12-20T09:02:26;47.77;;;20.50;;
5117;SDS011;2578;51.622;7.046;2023-12-20T09:04:52;50.33;;;21.17;;
5117;SDS011;2578;51.622;7.046;2023-12-20T09:07:25;45.60;;;19.10;;
5117;SDS011;2578;51.622;7.046;2023-12-20T09:09:51;46.40;;;19.87;;
5117;SDS011;2578;51.622;7.046;2023-12-20T09:12:18;80.80;;;22.03;;
5117;SDS011;2578;51.622;7.046;2023-12-20T09:14:44;46.80;;;20.07;;
5117;SDS011;2578;51.622;7.046;2023-12-20T09:17:10;48.80;;;20.03;;
5117;SDS011;2578;51.622;7.046;2023-12-20T09:19:37;45.97;;;19.50;;
5117;SDS011;2578;51.622;7.046;2023-12-20T09:22:03;54.10;;;22.30;;
5117;SDS011;2578;51.622;7.046;2023-12-20T09:24:30;49.70;;;22.70;;
5117;SDS011;2578;51.622;7.046;2023-12-20T09:26:56;56.43;;;22.97;;
5117;SDS011;2578;51.622;7.046;2023-12-20T09:29:22;46.87;;;20.47;;
5117;SDS011;2578;51.622;7.046;2023-12-20T09:31:48;48.27;;;21.67;;
5117;SDS011;2578;51.622;7.046;2023-12-20T09:34:15;74.83;;;24.13;;
5117;SDS011;2578;51.622;7.046;2023-12-20T09:36:41;50.27;;;22.53;;
5117;SDS011;2578;51.622;7.046;2023-12-20T09:39:12;46.23;;;21.60;;
5117;SDS011;2578;51.622;7.046;2023-12-20T09:41:40;48.87;;;21.97;;
5117;SDS011;2578;51.622;7.046;2023-12-20T09:44:08;49.20;;;22.50;;
5117;SDS011;2578;51.622;7.046;2023-12-20T09:46:42;47.10;;;21.20;;
5117;SDS011;2578;51.622;7.046;2023-12-20T09:49:14;47.10;;;21.40;;
5117;SDS011;2578;51.622;7.046;2023-12-20T09:51:42;50.47;;;22.40;;
5117;SDS011;2578;51.622;7.046;2023-12-20T09:54:08;46.40;;;21.47;;
5117;SDS011;2578;51.622;7.046;2023-12-20T09:56:34;47.57;;;20.40;;
5117;SDS011;2578;51.622;7.046;2023-12-20T09:59:02;46.17;;;20.37;;
5117;SDS011;2578;51.622;7.046;2023-12-20T10:01:28;49.30;;;20.77;;
5117;SDS011;2578;51.622;7.046;2023-12-20T10:03:54;59.77;;;22.80;;
5117;SDS011;2578;51.622;7.046;2023-12-20T10:06:20;46.90;;;21.70;;
5117;SDS011;2578;51.622;7.046;2023-12-20T10:08:47;55.67;;;27.13;;
5117;SDS011;2578;51.622;7.046;2023-12-20T10:11:13;51.03;;;21.70;;
5117;SDS011;2578;51.622;7.046;2023-12-20T10:13:42;51.77;;;19.67;;
5117;SDS011;2578;51.622;7.046;2023-12-20T10:16:08;47.40;;;21.50;;
5117;SDS011;2578;51.622;7.046;2023-12-20T10:18:34;44.30;;;18.73;;
5117;SDS011;2578;51.622;7.046;2023-12-20T10:21:01;45.60;;;19.60;;
5117;SDS011;2578;51.622;7.046;2023-12-20T10:23:28;65.53;;;22.70;;
5117;SDS011;2578;51.622;7.046;2023-12-20T10:25:57;52.50;;;20.67;;
5117;SDS011;2578;51.622;7.046;2023-12-20T10:28:24;47.47;;;20.20;;
5117;SDS011;2578;51.622;7.046;2023-12-20T10:30:52;52.40;;;21.40;;
5117;SDS011;2578;51.622;7.046;2023-12-20T10:33:26;47.33;;;20.00;;
5117;SDS011;2578;51.622;7.046;2023-12-20T10:35:57;47.30;;;19.87;;
5117;SDS011;2578;51.622;7.046;2023-12-20T10:38:23;44.57;;;20.07;;
5117;SDS011;2578;51.622;7.046;2023-12-20T10:40:49;50.90;;;20.67;;
5117;SDS011;2578;51.622;7.046;2023-12-20T10:43:20;44.30;;;19.20;;
5117;SDS011;2578;51.622;7.046;2023-12-20T10:45:47;46.00;;;19.77;;
5117;SDS011;2578;51.622;7.046;2023-12-20T10:48:13;47.00;;;21.43;;
5117;SDS011;2578;51.622;7.046;2023-12-20T10:50:41;54.97;;;23.10;;
5117;SDS011;2578;51.622;7.046;2023-12-20T10:53:06;51.20;;;21.70;;
5117;SDS011;2578;51.622;7.046;2023-12-20T10:55:33;69.73;;;23.43;;
5117;SDS011;2578;51.622;7.046;2023-12-20T10:58:06;54.30;;;28.20;;
5117;SDS011;2578;51.622;7.046;2023-12-20T11:00:33;50.63;;;24.47;;
5117;SDS011;2578;51.622;7.046;2023-12-20T11:03:04;51.17;;;23.67;;
5117;SDS011;2578;51.622;7.046;2023-12-20T11:05:36;46.87;;;21.77;;
5117;SDS011;2578;51.622;7.046;2023-12-20T11:08:14;50.70;;;21.23;;
5117;SDS011;2578;51.622;7.046;2023-12-20T11:13:22;49.60;;;21.80;;
5117;SDS011;2578;51.622;7.046;2023-12-20T11:15:51;50.83;;;21.10;;
5117;SDS011;2578;51.622;7.046;2023-12-20T11:18:18;44.37;;;18.90;;
5117;SDS011;2578;51.622;7.046;2023-12-20T11:20:44;44.80;;;18.80;;
5117;SDS011;2578;51.622;7.046;2023-12-20T11:23:10;45.97;;;19.33;;
5117;SDS011;2578;51.622;7.046;2023-12-20T11:25:54;44.00;;;19.83;;
5117;SDS011;2578;51.622;7.046;2023-12-20T11:28:24;42.37;;;18.50;;
5117;SDS011;2578;51.622;7.046;2023-12-20T11:30:51;42.30;;;18.57;;
5117;SDS011;2578;51.622;7.046;2023-12-20T11:33:24;43.60;;;19.30;;
5117;SDS011;2578;51.622;7.046;2023-12-20T11:35:51;45.93;;;20.87;;
5117;SDS011;2578;51.622;7.046;2023-12-20T11:38:20;47.40;;;20.77;;
5117;SDS011;2578;51.622;7.046;2023-12-20T11:40:47;40.50;;;17.57;;
5117;SDS011;2578;51.622;7.046;2023-12-20T11:43:29;50.97;;;18.77;;
5117;SDS011;2578;51.622;7.046;2023-12-20T11:46:07;46.00;;;19.40;;
5117;SDS011;2578;51.622;7.046;2023-12-20T11:48:37;44.40;;;18.00;;
5117;SDS011;2578;51.622;7.046;2023-12-20T11:51:11;43.37;;;19.20;;
5117;SDS011;2578;51.622;7.046;2023-12-20T11:53:37;47.23;;;19.00;;
5117;SDS011;2578;51.622;7.046;2023-12-20T11:56:05;44.93;;;19.37;;
5117;SDS011;2578;51.622;7.046;2023-12-20T11:58:32;43.07;;;19.33;;
5117;SDS011;2578;51.622;7.046;2023-12-20T12:00:58;44.80;;;19.70;;
5117;SDS011;2578;51.622;7.046;2023-12-20T12:03:24;88.10;;;22.53;;
5117;SDS011;2578;51.622;7.046;2023-12-20T12:05:50;56.00;;;19.07;;
5117;SDS011;2578;51.622;7.046;2023-12-20T12:08:16;45.87;;;20.17;;
5117;SDS011;2578;51.622;7.046;2023-12-20T12:10:43;44.10;;;18.70;;
5117;SDS011;2578;51.622;7.046;2023-12-20T12:13:10;44.13;;;19.30;;
5117;SDS011;2578;51.622;7.046;2023-12-20T12:15:36;42.63;;;17.40;;
5117;SDS011;2578;51.622;7.046;2023-12-20T12:18:02;41.83;;;18.13;;
5117;SDS011;2578;51.622;7.046;2023-12-20T12:20:30;53.97;;;18.03;;
5117;SDS011;2578;51.622;7.046;2023-12-20T12:22:59;46.83;;;19.30;;
5117;SDS011;2578;51.622;7.046;2023-12-20T12:25:26;63.30;;;19.67;;
5117;SDS011;2578;51.622;7.046;2023-12-20T12:27:52;58.60;;;23.83;;
5117;SDS011;2578;51.622;7.046;2023-12-20T12:30:18;47.47;;;20.70;;
5117;SDS011;2578;51.622;7.046;2023-12-20T12:32:44;44.30;;;21.30;;
5117;SDS011;2578;51.622;7.046;2023-12-20T12:35:10;43.30;;;20.50;;
5117;SDS011;2578;51.622;7.046;2023-12-20T12:37:38;45.37;;;20.73;;
5117;SDS011;2578;51.622;7.046;2023-12-20T12:40:05;49.90;;;21.57;;
5117;SDS011;2578;51.622;7.046;2023-12-20T12:42:32;45.20;;;19.53;;
5117;SDS011;2578;51.622;7.046;2023-12-20T12:44:58;44.03;;;19.60;;
5117;SDS011;2578;51.622;7.046;2023-12-20T12:47:24;44.10;;;18.60;;
5117;SDS011;2578;51.622;7.046;2023-12-20T12:49:51;43.80;;;18.67;;
5117;SDS011;2578;51.622;7.046;2023-12-20T12:52:18;45.37;;;19.77;;
5117;SDS011;2578;51.622;7.046;2023-12-20T12:54:44;46.80;;;20.90;;
5117;SDS011;2578;51.622;7.046;2023-12-20T12:57:10;46.50;;;20.17;;
5117;SDS011;2578;51.622;7.046;2023-12-20T12:59:36;52.80;;;24.10;;
5117;SDS011;2578;51.622;7.046;2023-12-20T13:02:02;55.00;;;21.90;;
5117;SDS011;2578;51.622;7.046;2023-12-20T13:04:28;49.60;;;20.13;;
5117;SDS011;2578;51.622;7.046;2023-12-20T13:06:54;49.30;;;18.83;;
5117;SDS011;2578;51.622;7.046;2023-12-20T13:09:20;49.53;;;20.13;;
5117;SDS011;2578;51.622;7.046;2023-12-20T13:11:46;68.83;;;22.30;;
5117;SDS011;2578;51.622;7.046;2023-12-20T13:14:12;49.80;;;20.50;;
5117;SDS011;2578;51.622;7.046;2023-12-20T13:16:40;47.43;;;19.80;;
5117;SDS011;2578;51.622;7.046;2023-12-20T13:19:06;45.03;;;19.17;;
5117;SDS011;2578;51.622;7.046;2023-12-20T13:21:32;44.70;;;18.73;;
5117;SDS011;2578;51.622;7.046;2023-12-20T13:23:58;42.97;;;18.27;;
5117;SDS011;2578;51.622;7.046;2023-12-20T13:26:24;44.37;;;18.10;;
5117;SDS011;2578;51.622;7.046;2023-12-20T13:28:50;49.00;;;21.17;;
5117;SDS011;2578;51.622;7.046;2023-12-20T13:31:15;45.60;;;19.97;;
5117;SDS011;2578;51.622;7.046;2023-12-20T13:33:41;44.77;;;19.57;;
5117;SDS011;2578;51.622;7.046;2023-12-20T13:36:08;46.10;;;18.87;;
5117;SDS011;2578;51.622;7.046;2023-12-20T13:38:34;44.27;;;19.03;;
5117;SDS011;2578;51.622;7.046;2023-12-20T13:41:00;44.77;;;19.23;;
5117;SDS011;2578;51.622;7.046;2023-12-20T13:43:26;47.83;;;20.60;;
5117;SDS011;2578;51.622;7.046;2023-12-20T13:45:55;44.07;;;18.80;;
5117;SDS011;2578;51.622;7.046;2023-12-20T13:48:21;47.40;;;19.57;;
5117;SDS011;2578;51.622;7.046;2023-12-20T13:50:46;45.60;;;19.30;;
5117;SDS011;2578;51.622;7.046;2023-12-20T13:53:13;44.17;;;19.83;;
5117;SDS011;2578;51.622;7.046;2023-12-20T13:55:39;46.03;;;21.27;;
5117;SDS011;2578;51.622;7.046;2023-12-20T13:58:05;44.77;;;19.57;;
5117;SDS011;2578;51.622;7.046;2023-12-20T14:00:30;49.20;;;22.63;;
5117;SDS011;2578;51.622;7.046;2023-12-20T14:02:56;46.10;;;20.63;;
5117;SDS011;2578;51.622;7.046;2023-12-20T14:05:23;50.23;;;26.70;;
5117;SDS011;2578;51.622;7.046;2023-12-20T14:07:49;55.67;;;27.93;;
5117;SDS011;2578;51.622;7.046;2023-12-20T14:10:15;50.17;;;24.23;;
5117;SDS011;2578;51.622;7.046;2023-12-20T14:12:41;47.30;;;22.20;;
5117;SDS011;2578;51.622;7.046;2023-12-20T14:15:07;48.27;;;22.83;;
5117;SDS011;2578;51.622;7.046;2023-12-20T14:17:35;52.77;;;23.33;;
5117;SDS011;2578;51.622;7.046;2023-12-20T14:20:05;46.47;;;22.03;;
5117;SDS011;2578;51.622;7.046;2023-12-20T14:22:32;46.20;;;21.73;;
5117;SDS011;2578;51.622;7.046;2023-12-20T14:24:57;46.70;;;22.00;;
5117;SDS011;2578;51.622;7.046;2023-12-20T14:27:24;49.90;;;22.40;;
5117;SDS011;2578;51.622;7.046;2023-12-20T14:29:53;50.80;;;22.90;;
5117;SDS011;2578;51.622;7.046;2023-12-20T14:32:19;47.77;;;21.83;;
5117;SDS011;2578;51.622;7.046;2023-12-20T14:34:45;55.73;;;23.47;;
5117;SDS011;2578;51.622;7.046;2023-12-20T14:37:11;46.80;;;21.83;;
5117;SDS011;2578;51.622;7.046;2023-12-20T14:39:37;74.60;;;23.63;;
5117;SDS011;2578;51.622;7.046;2023-12-20T14:42:06;56.37;;;27.03;;
5117;SDS011;2578;51.622;7.046;2023-12-20T14:44:38;53.30;;;24.70;;
5117;SDS011;2578;51.622;7.046;2023-12-20T14:47:07;47.27;;;22.37;;